createdAt,value
2023-04-05T05:14:17.776Z,99110.34
2023-04-05T05:16:46.331Z,99115.55
2023-04-05T05:19:16.501Z,99121.01
2023-04-05T05:21:50.200Z,99127.08
2023-04-05T05:24:22.191Z,99129.05
2023-04-05T05:26:51.917Z,99132.02
2023-04-05T05:29:21.981Z,99134.58
2023-04-05T05:31:51.186Z,99130.11
2023-04-05T05:34:19.571Z,99125.34
2023-04-05T05:37:01.879Z,99134.05
2023-04-05T05:39:30.317Z,99121.15
2023-04-05T05:41:58.963Z,99116.36
2023-04-05T05:44:27.097Z,99115.64
2023-04-05T05:46:58.491Z,99118.34
2023-04-05T05:49:27.361Z,99112.91
2023-04-05T05:51:59.144Z,99114.41
2023-04-05T05:54:27.802Z,99116.49
2023-04-05T05:56:57.132Z,99107.77
2023-04-05T05:59:25.679Z,99104.84
2023-04-05T06:01:55.257Z,99102.45
2023-04-05T06:04:24.847Z,99115.15
2023-04-05T06:06:55.184Z,99106.30
2023-04-05T06:09:31.114Z,99116.11
2023-04-05T06:11:59.935Z,99114.99
2023-04-05T06:14:30.053Z,99121.05
2023-04-05T06:17:01.122Z,99112.49
2023-04-05T06:19:29.572Z,99108.42
2023-04-05T06:21:57.677Z,99095.73
2023-04-05T06:24:26.614Z,99094.41
2023-04-05T06:26:55.546Z,99090.21
2023-04-05T06:29:25.260Z,99090.78
2023-04-05T06:31:54.388Z,99086.75
2023-04-05T06:34:23.053Z,99084.91
2023-04-05T06:36:56.548Z,99081.05
2023-04-05T06:39:24.619Z,99074.89
2023-04-05T06:41:54.212Z,99073.58
2023-04-05T06:44:26.924Z,99077.41
2023-04-05T06:47:00.119Z,99085.48
2023-04-05T06:49:28.805Z,99076.67
2023-04-05T06:51:57.290Z,99079.02
2023-04-05T06:54:25.565Z,99076.86
2023-04-05T06:56:53.814Z,99081.64
2023-04-05T06:59:21.929Z,99078.34
2023-04-05T07:01:50.745Z,99080.05
2023-04-05T07:04:19.097Z,99081.95
2023-04-05T07:06:47.709Z,99079.77
2023-04-05T07:09:18.426Z,99084.46
2023-04-05T07:11:47.812Z,99081.95
2023-04-05T07:14:15.950Z,99074.55
2023-04-05T07:16:52.607Z,99066.77
2023-04-05T07:19:20.987Z,99066.46
2023-04-05T07:21:49.464Z,99060.87
2023-04-05T07:24:19.269Z,99063.47
2023-04-05T07:26:48.179Z,99064.09
2023-04-05T07:29:17.879Z,99062.45
2023-04-05T07:31:47.091Z,99062.48
2023-04-05T07:34:15.536Z,99065.08
2023-04-05T07:36:43.858Z,99056.97
2023-04-05T07:39:12.846Z,99051.60
2023-04-05T07:41:42.790Z,99059.71
2023-04-05T07:44:17.298Z,99059.77
2023-04-05T07:46:49.133Z,99056.83
2023-04-05T07:49:17.655Z,99054.48
2023-04-05T07:51:48.484Z,99039.16
2023-04-05T07:54:16.777Z,99038.63
2023-04-05T07:56:51.451Z,99029.12
2023-04-05T07:59:19.944Z,99025.27
2023-04-05T08:01:48.258Z,99031.45
2023-04-05T08:04:17.265Z,99033.09
2023-04-05T08:06:46.160Z,99038.70
2023-04-05T08:09:14.697Z,99039.95
2023-04-05T08:11:43.845Z,99026.05
2023-04-05T08:14:12.573Z,99019.11
2023-04-05T08:16:40.828Z,99020.55
2023-04-05T08:19:09.070Z,99011.31
2023-04-05T08:21:37.482Z,99011.35
2023-04-05T08:24:06.153Z,99005.23
2023-04-05T08:26:34.425Z,99010.02
2023-04-05T08:29:05.397Z,99000.52
2023-04-05T08:31:34.275Z,99003.72
2023-04-05T08:34:03.187Z,99001.76
2023-04-05T08:36:35.156Z,99002.52
2023-04-05T08:39:03.507Z,99005.38
2023-04-05T08:41:36.729Z,99009.10
2023-04-05T08:44:08.499Z,99006.78
2023-04-05T08:46:36.566Z,99010.43
2023-04-05T08:49:07.343Z,99003.27
2023-04-05T08:51:39.702Z,98995.11
2023-04-05T08:54:10.084Z,99003.06
2023-04-05T08:56:38.273Z,98993.91
2023-04-05T08:59:12.060Z,98998.38
2023-04-05T09:01:44.271Z,98990.45
2023-04-05T09:04:30.266Z,98985.71
2023-04-05T09:06:59.459Z,98996.91
2023-04-05T09:09:29.120Z,99002.59
2023-04-05T09:12:17.944Z,99003.21
2023-04-05T09:14:46.330Z,99000.96
2023-04-05T09:17:21.486Z,98997.63
2023-04-05T09:19:50.589Z,99004.95
2023-04-05T09:22:19.233Z,98991.09
2023-04-05T09:24:47.708Z,98993.50
2023-04-05T09:27:19.902Z,98998.55
2023-04-05T09:29:55.463Z,98998.43
2023-04-05T09:32:26.234Z,98996.05
2023-04-05T09:34:54.546Z,99006.86
2023-04-05T09:37:29.678Z,99012.65
2023-04-05T09:40:05.487Z,99020.05
2023-04-05T09:42:48.054Z,99025.05
2023-04-05T09:45:18.441Z,99026.51
2023-04-05T09:47:58.074Z,99023.55
2023-04-05T09:50:27.307Z,99041.51
2023-04-05T09:53:10.767Z,99038.55
2023-04-05T09:55:40.707Z,99044.82
2023-04-05T09:58:19.415Z,99044.30
2023-04-05T10:01:03.268Z,99030.94
2023-04-05T10:14:03.886Z,99054.35
2023-04-05T10:16:34.722Z,99058.87
2023-04-05T10:19:03.337Z,99056.02
2023-04-05T10:21:37.448Z,99042.23
2023-04-05T10:24:08.004Z,99051.10
2023-04-05T10:27:06.425Z,99053.02
2023-04-05T10:30:04.858Z,99041.04
2023-04-05T10:32:44.640Z,99038.23
2023-04-05T10:35:17.136Z,99033.27
2023-04-05T10:38:17.863Z,99033.52
2023-04-05T10:40:47.964Z,99029.52
2023-04-05T10:43:23.903Z,99029.42
2023-04-05T10:45:53.520Z,99030.46
2023-04-05T10:48:35.090Z,99035.36
2023-04-05T10:51:05.137Z,99031.59
2023-04-05T10:53:34.110Z,99029.04
2023-04-05T10:56:02.538Z,99028.59
2023-04-05T10:58:31.142Z,99019.98
2023-04-05T11:00:59.662Z,99031.27
2023-04-05T11:03:51.883Z,99024.66
2023-04-05T11:06:25.537Z,99022.41
2023-04-05T11:09:18.201Z,99019.81
2023-04-05T11:11:51.513Z,99016.61
2023-04-05T11:14:41.154Z,99013.92
2023-04-05T11:17:25.848Z,99006.86
2023-04-05T11:20:05.125Z,98997.52
2023-04-05T11:22:33.449Z,98993.72
2023-04-05T11:25:03.466Z,98982.28
2023-04-05T11:27:34.135Z,98980.60
2023-04-05T11:30:03.071Z,98974.48
2023-04-05T11:32:43.592Z,98958.56
2023-04-05T11:35:17.936Z,98953.96
2023-04-05T11:38:01.714Z,98950.37
2023-04-05T11:40:31.696Z,98947.20
2023-04-05T11:43:10.295Z,98947.73
2023-04-05T11:45:39.344Z,98942.85
2023-04-05T11:48:09.195Z,98934.63
2023-04-05T11:50:38.613Z,98931.51
2023-04-05T11:53:19.711Z,98925.94
2023-04-05T11:55:53.535Z,98938.09
2023-04-05T11:58:24.045Z,98941.29
2023-04-05T12:01:02.418Z,98940.54
2023-04-05T12:03:34.391Z,98940.31
2023-04-05T12:06:04.293Z,98937.17
2023-04-05T12:08:42.926Z,98944.73
2023-04-05T12:11:23.504Z,98952.31
2023-04-05T12:13:56.400Z,98954.73
2023-04-05T12:16:24.846Z,98953.52
2023-04-05T12:18:54.589Z,98957.02
2023-04-05T12:21:23.321Z,98956.41
2023-04-05T12:23:55.458Z,98962.29
2023-04-05T12:26:23.882Z,98963.49
2023-04-05T12:29:00.411Z,98963.76
2023-04-05T12:31:37.986Z,98963.62
2023-04-05T12:34:06.800Z,98963.64
2023-04-05T12:36:35.078Z,98965.20
2023-04-05T12:39:06.563Z,98960.68
2023-04-05T12:41:35.329Z,98964.46
2023-04-05T12:44:12.488Z,98971.65
2023-04-05T12:46:41.323Z,98970.06
2023-04-05T12:49:16.619Z,98977.45
2023-04-05T12:51:48.166Z,98981.10
2023-04-05T12:54:23.818Z,98991.13
2023-04-05T12:56:54.546Z,98989.09
2023-04-05T12:59:23.357Z,98992.16
2023-04-05T13:01:52.390Z,98990.74
2023-04-05T13:04:23.220Z,98986.08
2023-04-05T13:06:55.247Z,98976.80
2023-04-05T13:09:23.756Z,98966.27
2023-04-05T13:11:52.153Z,98955.95
2023-04-05T13:14:20.337Z,98957.88
2023-04-05T13:16:48.850Z,98958.67
2023-04-05T13:19:17.104Z,98960.77
2023-04-05T13:21:47.134Z,98962.17
2023-04-05T13:24:15.503Z,98959.11
2023-04-05T13:26:45.318Z,98956.96
2023-04-05T13:29:13.535Z,98953.25
2023-04-05T13:31:41.993Z,98952.95
2023-04-05T13:34:11.699Z,98956.85
2023-04-05T13:36:39.961Z,98963.60
2023-04-05T13:39:08.274Z,98965.77
2023-04-05T13:41:38.276Z,98967.91
2023-04-05T13:44:06.932Z,98965.31
2023-04-05T13:46:36.182Z,98965.41
2023-04-05T13:49:04.371Z,98968.56
2023-04-05T13:51:34.692Z,98957.43
2023-04-05T13:54:05.205Z,98948.95
2023-04-05T13:56:34.785Z,98951.59
2023-04-05T13:59:04.678Z,98952.30
2023-04-05T14:01:36.437Z,98960.33
2023-04-05T14:04:04.879Z,98963.02
2023-04-05T14:06:34.594Z,98971.06
2023-04-05T14:09:02.874Z,98975.92
2023-04-05T14:11:32.595Z,98976.52
2023-04-05T14:14:01.482Z,98974.27
2023-04-05T14:16:30.615Z,98980.48
2023-04-05T14:18:58.976Z,98982.25
2023-04-05T14:21:27.668Z,98989.11
2023-04-05T14:23:57.149Z,98986.73
2023-04-05T14:26:26.291Z,98994.27
2023-04-05T14:28:54.854Z,98991.00
2023-04-05T14:31:26.603Z,98998.29
2023-04-05T14:33:55.654Z,98994.84
2023-04-05T14:36:23.903Z,99004.84
2023-04-05T14:38:56.670Z,99007.93
2023-04-05T14:41:27.301Z,99006.27
2023-04-05T14:43:55.559Z,99014.17
2023-04-05T14:46:24.215Z,99017.21
2023-04-05T14:48:52.867Z,99013.73
2023-04-05T14:51:21.044Z,99010.73
2023-04-05T14:53:49.590Z,99009.86
2023-04-05T14:56:19.916Z,99013.13
2023-04-05T14:58:48.559Z,99014.30
2023-04-05T15:01:16.748Z,99017.38
2023-04-05T15:03:48.292Z,99007.41
2023-04-05T15:06:16.714Z,99009.98
2023-04-05T15:08:44.950Z,99009.96
2023-04-05T15:11:13.278Z,99012.13
2023-04-05T15:13:41.775Z,99008.88
2023-04-05T15:16:10.820Z,99010.54
2023-04-05T15:18:39.705Z,99013.29
2023-04-05T15:21:08.209Z,99010.63
2023-04-05T15:23:40.892Z,99012.54
2023-04-05T15:26:09.173Z,99017.02
2023-04-05T15:28:37.439Z,99019.06
2023-04-05T15:31:06.161Z,99018.76
2023-04-05T15:33:34.510Z,99021.68
2023-04-05T15:36:03.325Z,99023.02
2023-04-05T15:38:32.612Z,99017.29
2023-04-05T15:41:00.881Z,99023.02
2023-04-05T15:43:31.256Z,99030.98
2023-04-05T15:45:59.605Z,99028.75
2023-04-05T15:48:27.977Z,99027.41
2023-04-05T15:50:56.359Z,99022.42
2023-04-05T15:53:24.589Z,99021.05
2023-04-05T15:55:53.643Z,99028.42
2023-04-05T15:58:21.932Z,99028.20
2023-04-05T16:00:50.442Z,99033.34
2023-04-05T16:03:19.441Z,99031.87
2023-04-05T16:05:47.993Z,99031.93
2023-04-05T16:08:16.587Z,99039.39
2023-04-05T16:10:45.092Z,99047.16
2023-04-05T16:13:19.186Z,99046.05
2023-04-05T16:15:49.205Z,99047.52
2023-04-05T16:18:19.846Z,99040.33
2023-04-05T16:20:51.017Z,99025.43
2023-04-05T16:23:19.842Z,99026.41
2023-04-05T16:25:48.433Z,99021.70
2023-04-05T16:28:19.101Z,99029.92
2023-04-05T16:30:48.336Z,99027.27
2023-04-05T16:33:17.834Z,99035.64
2023-04-05T16:35:48.884Z,99036.77
2023-04-05T16:38:17.645Z,99034.35
2023-04-05T16:40:46.050Z,99032.81
2023-04-05T16:43:15.969Z,99016.50
2023-04-05T16:45:45.277Z,99023.86
2023-04-05T16:48:14.899Z,99027.55
2023-04-05T16:50:43.089Z,99026.34
2023-04-05T16:53:11.831Z,99019.69
2023-04-05T16:55:40.627Z,99021.29
2023-04-05T16:58:09.428Z,99015.66
2023-04-05T17:00:38.831Z,99016.38
2023-04-05T17:03:17.652Z,99025.06
2023-04-05T17:05:46.960Z,99030.01
2023-04-05T17:08:16.510Z,99032.67
2023-04-05T17:10:44.763Z,99037.55
2023-04-05T17:13:14.976Z,99033.66
2023-04-05T17:15:44.734Z,99038.32
2023-04-05T17:18:13.082Z,99039.86
2023-04-05T17:20:41.251Z,99046.31
2023-04-05T17:23:09.624Z,99054.62
2023-04-05T17:25:37.903Z,99056.09
2023-04-05T17:28:07.307Z,99060.48
2023-04-05T17:30:36.203Z,99068.94
2023-04-05T17:33:05.344Z,99073.84
2023-04-05T17:35:33.918Z,99073.42
2023-04-05T17:38:03.706Z,99079.39
2023-04-05T17:40:32.759Z,99086.44
2023-04-05T17:43:01.412Z,99088.02
2023-04-05T17:45:29.780Z,99091.52
2023-04-05T17:47:59.474Z,99091.98
2023-04-05T17:50:29.410Z,99093.45
2023-04-05T17:52:58.200Z,99098.53
2023-04-05T17:55:26.570Z,99094.74
2023-04-05T17:57:55.038Z,99101.51
2023-04-05T18:00:23.780Z,99099.46
2023-04-05T18:02:52.394Z,99101.34
2023-04-05T18:05:21.050Z,99098.95
2023-04-05T18:07:49.338Z,99094.58
2023-04-05T18:10:17.961Z,99096.36
2023-04-05T18:12:46.712Z,99093.33
2023-04-05T18:15:18.409Z,99088.13
2023-04-05T18:17:47.493Z,99086.62
2023-04-05T18:20:16.559Z,99085.52
2023-04-05T18:22:47.008Z,99087.44
2023-04-05T18:25:15.681Z,99083.13
2023-04-05T18:27:44.268Z,99079.14
2023-04-05T18:30:14.187Z,99082.88
2023-04-05T18:32:43.201Z,99087.77
2023-04-05T18:35:11.891Z,99082.38
2023-04-05T18:37:44.057Z,99087.78
2023-04-05T18:40:12.429Z,99085.23
2023-04-05T18:42:45.511Z,99089.56
2023-04-05T18:45:14.164Z,99087.40
2023-04-05T18:47:42.536Z,99091.28
2023-04-05T18:50:11.504Z,99092.73
2023-04-05T18:52:39.827Z,99091.86
2023-04-05T18:55:08.964Z,99092.33
2023-04-05T18:57:37.233Z,99098.07
2023-04-05T19:00:08.949Z,99093.09
2023-04-05T19:02:38.237Z,99088.11
2023-04-05T19:05:07.340Z,99089.68
2023-04-05T19:07:35.826Z,99085.04
2023-04-05T19:10:05.056Z,99087.09
2023-04-05T19:12:33.697Z,99084.60
2023-04-05T19:15:04.320Z,99086.63
2023-04-05T19:17:33.286Z,99090.27
2023-04-05T19:20:01.469Z,99085.82
2023-04-05T19:22:31.316Z,99085.94
2023-04-05T19:25:01.270Z,99082.26
2023-04-05T19:27:35.562Z,99079.40
2023-04-05T19:30:04.420Z,99073.25
2023-04-05T19:32:34.194Z,99077.92
2023-04-05T19:35:02.856Z,99079.14
2023-04-05T19:37:32.568Z,99080.76
2023-04-05T19:40:01.870Z,99076.89
2023-04-05T19:42:30.453Z,99082.34
2023-04-05T19:44:59.565Z,99077.17
2023-04-05T19:47:27.900Z,99082.98
2023-04-05T19:49:57.134Z,99086.20
2023-04-05T19:52:43.795Z,99086.76
2023-04-05T19:55:31.969Z,99083.29
2023-04-05T19:58:01.822Z,99087.15
2023-04-05T20:00:36.343Z,99084.95
2023-04-05T20:03:32.344Z,99084.94
2023-04-05T20:06:11.291Z,99084.20
2023-04-05T20:08:45.207Z,99081.54
2023-04-05T20:11:16.218Z,99084.40
2023-04-05T20:13:50.898Z,99081.75
2023-04-05T20:16:32.255Z,99087.52
2023-04-05T20:19:12.690Z,99085.20
2023-04-05T20:21:42.279Z,99084.16
2023-04-05T20:24:12.641Z,99086.72
2023-04-05T20:26:46.148Z,99076.10
2023-04-05T20:29:16.236Z,99079.20
2023-04-05T20:31:44.404Z,99083.19
2023-04-05T20:34:27.971Z,99078.02
2023-04-05T20:37:01.965Z,99077.31
2023-04-05T20:39:31.182Z,99075.71
2023-04-05T20:42:00.409Z,99077.65
2023-04-05T20:44:30.526Z,99076.32
2023-04-05T20:46:59.092Z,99073.23
2023-04-05T20:49:28.194Z,99072.71
2023-04-05T20:51:57.818Z,99071.05
2023-04-05T20:54:26.994Z,99075.38
2023-04-05T20:56:58.482Z,99074.67
2023-04-05T20:59:27.586Z,99074.06
2023-04-05T21:01:56.228Z,99068.34
2023-04-05T21:04:24.908Z,99070.64
2023-04-05T21:06:53.294Z,99075.23
2023-04-05T21:09:21.889Z,99079.15
2023-04-05T21:11:49.987Z,99081.13
2023-04-05T21:14:18.240Z,99084.98
2023-04-05T21:16:46.718Z,99081.32
2023-04-05T21:19:15.099Z,99085.80
2023-04-05T21:21:43.702Z,99085.98
2023-04-05T21:24:12.073Z,99084.73
2023-04-05T21:26:40.361Z,99091.52
2023-04-05T21:29:09.667Z,99087.13
2023-04-05T21:31:38.989Z,99086.48
2023-04-05T21:34:07.397Z,99079.05
2023-04-05T21:36:39.212Z,99080.17
2023-04-05T21:39:07.981Z,99080.46
2023-04-05T21:41:37.005Z,99084.90
2023-04-05T21:44:06.337Z,99086.16
2023-04-05T21:46:35.221Z,99086.59
2023-04-05T21:49:03.601Z,99082.69
2023-04-05T21:51:32.995Z,99083.14
2023-04-05T21:54:01.170Z,99079.45
2023-04-05T21:56:32.868Z,99080.55
2023-04-05T21:59:01.173Z,99082.73
2023-04-05T22:01:29.703Z,99082.58
2023-04-05T22:03:58.896Z,99088.82
2023-04-05T22:06:27.403Z,99084.59
2023-04-05T22:08:55.759Z,99087.30
2023-04-05T22:11:25.175Z,99081.84
2023-04-05T22:13:54.989Z,99081.15
2023-04-05T22:16:23.331Z,99077.40
2023-04-05T22:18:51.957Z,99079.91
2023-04-05T22:21:20.615Z,99078.13
2023-04-05T22:23:49.031Z,99076.53
2023-04-05T22:26:17.438Z,99077.64
2023-04-05T22:28:45.585Z,99081.38
2023-04-05T22:31:14.958Z,99079.74
2023-04-05T22:33:44.301Z,99081.79
2023-04-05T22:36:13.183Z,99086.25
2023-04-05T22:38:43.758Z,99086.83
2023-04-05T22:41:13.038Z,99089.79
2023-04-05T22:43:41.336Z,99091.64
2023-04-05T22:46:10.603Z,99089.09
2023-04-05T22:48:38.952Z,99089.24
2023-04-05T22:51:08.419Z,99089.39
2023-04-05T22:53:36.689Z,99087.79
2023-04-05T22:56:11.312Z,99088.23
2023-04-05T22:58:40.718Z,99088.90
2023-04-05T23:01:13.146Z,99095.88
2023-04-05T23:03:41.785Z,99093.09
2023-04-05T23:06:10.303Z,99096.77
2023-04-05T23:08:38.718Z,99091.56
2023-04-05T23:11:09.592Z,99087.55
2023-04-05T23:13:40.640Z,99089.55
2023-04-05T23:16:08.823Z,99092.17
2023-04-05T23:18:39.861Z,99097.10
2023-04-05T23:21:09.267Z,99094.52
2023-04-05T23:23:37.545Z,99091.75
2023-04-05T23:26:06.062Z,99100.19
2023-04-05T23:28:34.393Z,99102.89
2023-04-05T23:31:03.044Z,99105.17
2023-04-05T23:33:34.047Z,99110.74
2023-04-05T23:36:02.812Z,99105.07
2023-04-05T23:38:32.999Z,99104.83
2023-04-05T23:41:01.652Z,99107.90
2023-04-05T23:43:29.934Z,99108.87
2023-04-05T23:45:58.419Z,99109.57
2023-04-05T23:48:29.090Z,99108.39
2023-04-05T23:50:57.859Z,99100.76
2023-04-05T23:53:26.133Z,99096.00
2023-04-05T23:55:56.921Z,99097.20
2023-04-05T23:58:25.657Z,99096.77
